Alice, Texas
Current Conditions -  °F | °C
As of 7:53 AM on Sunday 23 Nov 2014 (Local Time) from KALI Reporting Station
Clear Clear  
Wind Chill: 57°   Ceiling: Unl
Heat Index: 57°   Visibility: 10mi
Dew Point: 56°   Wind: 7mph
Humidity: 96%   Direction: 210°SSW
Pressure: 29.74"   Gusts: NA
Location:  27.75°N, 98.06°W
Report Text: KALI 231353Z AUTO 21006KT 10SM CLR 14/13 A2974 RMK AO2 SLP070 T01390133
Loading
Personal Weather Stations






























Interactive Weather Map New forecast layout! Learn more

10-Day Weather Forecast

Advertisements
Track Severe Weather on mobile